Time;durP1;ratioP1;P1;durP2;ratioP2;P2;SDS_P1;SDS_P2;PMS_P1;PMS_P2;Temp;Humidity;BMP_temperature;BMP_pressure;BME280_temperature;BME280_humidity;BME280_pressure;Samples;Min_cycle;Max_cycle;Signal;HPM_P1;HPM_P2
2023/11/23 00:00:50;;;;;;;11.83;9.63;;;;;;;;;;4953801;28;20226;-83
2023/11/23 00:03:18;;;;;;;9.87;8.90;;;;;;;;;;4982206;28;20247;-85
2023/11/23 00:05:46;;;;;;;10.13;9.13;;;;;;;;;;4964705;28;20226;-85
2023/11/23 00:08:12;;;;;;;14.40;9.37;;;;;;;;;;4958012;28;20228;-84
2023/11/23 00:10:39;;;;;;;11.37;8.07;;;;;;;;;;4960239;28;20301;-84
2023/11/23 00:13:07;;;;;;;11.30;9.43;;;;;;;;;;4960714;28;20300;-85
2023/11/23 00:15:33;;;;;;;12.47;10.33;;;;;;;;;;4977229;28;20217;-83
2023/11/23 00:18:00;;;;;;;13.73;10.90;;;;;;;;;;4944765;28;20224;-83
2023/11/23 00:20:26;;;;;;;12.07;10.87;;;;;;;;;;4959004;28;20238;-81
2023/11/23 00:22:52;;;;;;;13.50;11.50;;;;;;;;;;4953335;28;20290;-83
2023/11/23 00:25:17;;;;;;;18.57;12.13;;;;;;;;;;4958994;28;20714;-83
2023/11/23 00:27:45;;;;;;;13.87;12.40;;;;;;;;;;4970945;28;20230;-84
2023/11/23 00:30:14;;;;;;;12.97;11.60;;;;;;;;;;4961069;28;20245;-84
2023/11/23 00:32:44;;;;;;;13.70;12.37;;;;;;;;;;4955324;28;20214;-84
2023/11/23 00:35:09;;;;;;;18.33;13.87;;;;;;;;;;4976963;28;20766;-82
2023/11/23 00:37:35;;;;;;;14.63;13.10;;;;;;;;;;4957211;28;20274;-82
2023/11/23 00:40:00;;;;;;;14.80;13.23;;;;;;;;;;4944136;28;20250;-83
2023/11/23 00:42:28;;;;;;;17.27;13.97;;;;;;;;;;4968672;28;20238;-82
2023/11/23 00:44:55;;;;;;;16.63;14.83;;;;;;;;;;4957091;28;20235;-83
2023/11/23 00:47:28;;;;;;;18.47;13.47;;;;;;;;;;4928686;28;20242;-85
2023/11/23 00:49:54;;;;;;;19.60;16.53;;;;;;;;;;4934975;28;20246;-83
2023/11/23 00:52:21;;;;;;;18.57;15.60;;;;;;;;;;4945893;28;20625;-82
2023/11/23 00:54:47;;;;;;;21.63;17.07;;;;;;;;;;4930493;28;20257;-84
2023/11/23 00:57:12;;;;;;;19.20;16.73;;;;;;;;;;4959763;28;20257;-82
2023/11/23 00:59:39;;;;;;;18.17;16.07;;;;;;;;;;4962084;28;20237;-80
2023/11/23 01:02:05;;;;;;;19.20;17.17;;;;;;;;;;4954603;28;20206;-83
2023/11/23 01:04:30;;;;;;;19.97;16.87;;;;;;;;;;4957719;28;20274;-81
2023/11/23 01:06:56;;;;;;;22.13;18.27;;;;;;;;;;4957459;28;20234;-83
2023/11/23 01:09:23;;;;;;;21.33;17.40;;;;;;;;;;4953087;28;20229;-82
2023/11/23 01:11:51;;;;;;;25.43;18.67;;;;;;;;;;4946545;28;20211;-82
2023/11/23 01:14:16;;;;;;;24.77;19.33;;;;;;;;;;4954924;28;20741;-81
2023/11/23 01:16:43;;;;;;;20.47;17.83;;;;;;;;;;4957252;28;20218;-83
2023/11/23 01:19:15;;;;;;;22.03;19.70;;;;;;;;;;4956418;28;20214;-83
2023/11/23 01:21:43;;;;;;;21.93;19.43;;;;;;;;;;4954519;28;20241;-81
2023/11/23 01:24:11;;;;;;;25.00;20.67;;;;;;;;;;4952647;28;20218;-82
2023/11/23 01:26:37;;;;;;;23.43;20.53;;;;;;;;;;4975110;28;20226;-82
2023/11/23 01:29:07;;;;;;;20.47;17.83;;;;;;;;;;4959650;28;21813;-82
2023/11/23 01:31:35;;;;;;;24.00;20.70;;;;;;;;;;4942797;28;20222;-84
2023/11/23 01:34:03;;;;;;;23.07;19.47;;;;;;;;;;4958383;28;20258;-82
2023/11/23 01:36:29;;;;;;;28.20;21.20;;;;;;;;;;4956491;28;20264;-83
2023/11/23 01:38:56;;;;;;;22.73;20.00;;;;;;;;;;4961193;28;20252;-82
2023/11/23 01:41:28;;;;;;;26.93;20.37;;;;;;;;;;4956954;28;20687;-82
2023/11/23 01:43:59;;;;;;;25.37;20.70;;;;;;;;;;4952532;28;20250;-81
2023/11/23 01:46:27;;;;;;;24.87;20.87;;;;;;;;;;4954076;28;20234;-82
2023/11/23 01:48:55;;;;;;;26.30;21.87;;;;;;;;;;4958423;28;20222;-84
2023/11/23 01:51:26;;;;;;;24.10;19.90;;;;;;;;;;4958983;28;20218;-84
2023/11/23 01:53:54;;;;;;;22.57;18.73;;;;;;;;;;4957922;28;20370;-82
2023/11/23 01:56:25;;;;;;;22.97;19.97;;;;;;;;;;4944161;28;20217;-83
2023/11/23 01:58:51;;;;;;;24.33;20.60;;;;;;;;;;4952045;28;20227;-82
2023/11/23 02:01:19;;;;;;;21.13;18.77;;;;;;;;;;4963606;28;20257;-84
2023/11/23 02:03:45;;;;;;;23.33;20.17;;;;;;;;;;4957580;28;20238;-83
2023/11/23 02:06:12;;;;;;;19.90;17.80;;;;;;;;;;4972762;28;20227;-82
2023/11/23 02:08:45;;;;;;;22.20;19.63;;;;;;;;;;4952463;28;20225;-81
2023/11/23 02:11:12;;;;;;;24.13;19.57;;;;;;;;;;4952217;28;21630;-83
2023/11/23 02:13:38;;;;;;;21.97;19.30;;;;;;;;;;4960601;28;20238;-82
2023/11/23 02:16:04;;;;;;;21.17;18.90;;;;;;;;;;4952168;28;20270;-82
2023/11/23 02:18:36;;;;;;;22.60;19.30;;;;;;;;;;4943932;28;20257;-80
2023/11/23 02:21:02;;;;;;;22.90;19.30;;;;;;;;;;4951820;28;20231;-82
2023/11/23 02:23:27;;;;;;;24.13;20.17;;;;;;;;;;4957422;28;20273;-83
2023/11/23 02:25:53;;;;;;;24.23;19.50;;;;;;;;;;4949377;28;20595;-83
2023/11/23 02:28:21;;;;;;;21.33;18.60;;;;;;;;;;4958150;28;20839;-81
2023/11/23 02:30:47;;;;;;;22.30;20.00;;;;;;;;;;4969959;28;20222;-82
2023/11/23 02:33:15;;;;;;;26.70;20.07;;;;;;;;;;4974106;28;20228;-83
2023/11/23 02:35:43;;;;;;;22.53;19.50;;;;;;;;;;4951756;28;20215;-82
2023/11/23 02:38:09;;;;;;;19.37;17.13;;;;;;;;;;4956020;28;20290;-85
2023/11/23 02:40:37;;;;;;;26.47;19.67;;;;;;;;;;4956119;28;20226;-84
2023/11/23 02:43:06;;;;;;;23.37;20.83;;;;;;;;;;4951430;28;20234;-83
2023/11/23 02:45:34;;;;;;;22.97;20.43;;;;;;;;;;4956890;28;20244;-82
2023/11/23 02:48:00;;;;;;;19.43;17.33;;;;;;;;;;4952259;28;20210;-83
2023/11/23 02:50:26;;;;;;;24.70;20.90;;;;;;;;;;4961806;28;20233;-81
2023/11/23 02:52:55;;;;;;;21.93;19.70;;;;;;;;;;4961514;28;20226;-83
2023/11/23 02:55:24;;;;;;;23.63;21.13;;;;;;;;;;4954047;28;20579;-83
2023/11/23 02:57:52;;;;;;;27.20;19.60;;;;;;;;;;4961363;28;20233;-84
2023/11/23 03:00:17;;;;;;;24.63;21.20;;;;;;;;;;4962137;28;20302;-83
2023/11/23 03:02:43;;;;;;;22.30;20.10;;;;;;;;;;4942709;28;20254;-84
2023/11/23 03:05:10;;;;;;;25.57;22.23;;;;;;;;;;4962408;28;20226;-85
2023/11/23 03:07:36;;;;;;;23.10;20.73;;;;;;;;;;4962780;28;20258;-84
2023/11/23 03:10:02;;;;;;;24.83;21.53;;;;;;;;;;4976305;28;20231;-82
2023/11/23 03:12:28;;;;;;;24.63;22.10;;;;;;;;;;4963304;28;20336;-84
2023/11/23 03:14:57;;;;;;;25.00;22.40;;;;;;;;;;4959045;28;20218;-82
2023/11/23 03:17:22;;;;;;;24.00;21.10;;;;;;;;;;4959642;28;20241;-82
2023/11/23 03:19:48;;;;;;;24.77;22.17;;;;;;;;;;4978852;28;20230;-84
2023/11/23 03:22:17;;;;;;;23.80;20.63;;;;;;;;;;4971769;28;20286;-82
2023/11/23 03:24:42;;;;;;;23.43;20.07;;;;;;;;;;4966153;28;20238;-83
2023/11/23 03:27:09;;;;;;;23.50;21.07;;;;;;;;;;4976457;28;20229;-82
2023/11/23 03:29:36;;;;;;;23.77;21.17;;;;;;;;;;4954688;28;20234;-83
2023/11/23 03:32:08;;;;;;;22.53;19.00;;;;;;;;;;4952727;28;20230;-83
2023/11/23 03:34:34;;;;;;;27.17;23.40;;;;;;;;;;4951473;28;20218;-84
2023/11/23 03:37:00;;;;;;;25.77;21.83;;;;;;;;;;4961332;28;20222;-81
2023/11/23 03:39:28;;;;;;;25.03;21.53;;;;;;;;;;4951552;28;20222;-84
2023/11/23 03:41:56;;;;;;;27.67;22.67;;;;;;;;;;4957245;28;20247;-81
2023/11/23 03:44:22;;;;;;;25.10;22.40;;;;;;;;;;4958649;28;20230;-82
2023/11/23 03:46:50;;;;;;;25.30;22.43;;;;;;;;;;4952780;28;20231;-82
2023/11/23 03:49:15;;;;;;;24.97;22.40;;;;;;;;;;4961721;28;20677;-84
2023/11/23 03:51:43;;;;;;;26.60;23.80;;;;;;;;;;4974038;28;20227;-80
2023/11/23 03:54:09;;;;;;;25.83;22.83;;;;;;;;;;4960932;28;20438;-82
2023/11/23 03:56:37;;;;;;;25.87;23.27;;;;;;;;;;4957584;28;20770;-84
2023/11/23 04:02:53;;;;;;;25.53;22.77;;;;;;;;;;4973366;28;20232;-82
2023/11/23 04:05:19;;;;;;;30.20;24.93;;;;;;;;;;4977555;28;20254;-84
2023/11/23 04:07:47;;;;;;;28.10;24.43;;;;;;;;;;4960781;28;20309;-83
2023/11/23 04:10:19;;;;;;;29.20;25.20;;;;;;;;;;4954871;28;20620;-84
2023/11/23 04:12:47;;;;;;;27.93;24.93;;;;;;;;;;4952646;28;21024;-86
2023/11/23 04:15:13;;;;;;;30.10;24.60;;;;;;;;;;4951709;28;20307;-84
2023/11/23 04:17:38;;;;;;;27.47;24.57;;;;;;;;;;4976255;28;20234;-84
2023/11/23 04:20:05;;;;;;;28.57;24.97;;;;;;;;;;4961537;28;20257;-83
2023/11/23 04:22:30;;;;;;;25.73;23.00;;;;;;;;;;4962955;28;20248;-85
2023/11/23 04:24:56;;;;;;;28.67;25.67;;;;;;;;;;4959656;28;20222;-84
2023/11/23 04:27:21;;;;;;;26.10;22.93;;;;;;;;;;4958853;28;20218;-83
2023/11/23 04:29:52;;;;;;;26.10;23.30;;;;;;;;;;4958799;28;20240;-84
2023/11/23 04:32:20;;;;;;;28.37;25.23;;;;;;;;;;4959436;28;20230;-83
2023/11/23 04:34:46;;;;;;;26.83;24.03;;;;;;;;;;4925625;28;20274;-82
2023/11/23 04:37:12;;;;;;;27.43;24.53;;;;;;;;;;4931672;28;20642;-84
2023/11/23 04:39:37;;;;;;;34.17;24.60;;;;;;;;;;4951561;28;20218;-83
2023/11/23 04:42:05;;;;;;;28.33;23.90;;;;;;;;;;4957966;28;20309;-82
2023/11/23 04:44:31;;;;;;;27.13;24.27;;;;;;;;;;4959589;28;20226;-82
2023/11/23 04:46:56;;;;;;;26.00;23.27;;;;;;;;;;4958762;28;20239;-81
2023/11/23 04:49:24;;;;;;;26.77;24.00;;;;;;;;;;4951973;28;21307;-82
2023/11/23 04:51:52;;;;;;;24.90;22.23;;;;;;;;;;4955769;28;20220;-85
2023/11/23 04:54:17;;;;;;;26.60;23.77;;;;;;;;;;4955481;28;21113;-85
2023/11/23 04:56:50;;;;;;;27.80;24.90;;;;;;;;;;4950917;28;20231;-80
2023/11/23 04:59:15;;;;;;;27.93;25.03;;;;;;;;;;4958511;28;20249;-84
2023/11/23 05:01:43;;;;;;;27.17;24.30;;;;;;;;;;4960921;28;20297;-84
2023/11/23 05:04:11;;;;;;;26.73;23.83;;;;;;;;;;4963147;28;20329;-85
2023/11/23 05:06:39;;;;;;;27.93;23.83;;;;;;;;;;4963190;28;20715;-84
2023/11/23 05:09:07;;;;;;;29.03;24.93;;;;;;;;;;4963017;28;20257;-82
2023/11/23 05:11:32;;;;;;;26.47;23.77;;;;;;;;;;4963040;28;20229;-84
2023/11/23 05:14:07;;;;;;;27.07;24.17;;;;;;;;;;4961956;28;20223;-82
2023/11/23 05:16:33;;;;;;;28.60;25.30;;;;;;;;;;4958751;28;20245;-82
2023/11/23 05:18:58;;;;;;;26.83;23.10;;;;;;;;;;4962628;28;20278;-85
2023/11/23 05:21:24;;;;;;;29.67;26.27;;;;;;;;;;4969831;28;20230;-85
2023/11/23 05:23:49;;;;;;;28.47;25.23;;;;;;;;;;4972384;28;20247;-82
2023/11/23 05:26:15;;;;;;;28.97;25.93;;;;;;;;;;4974692;28;20226;-83
2023/11/23 05:28:43;;;;;;;30.70;26.83;;;;;;;;;;4971167;28;20218;-83
2023/11/23 05:31:11;;;;;;;30.23;27.07;;;;;;;;;;4972877;28;20401;-83
2023/11/23 05:33:39;;;;;;;31.83;28.37;;;;;;;;;;4970110;28;20224;-81
2023/11/23 05:36:10;;;;;;;34.77;29.27;;;;;;;;;;4966619;28;20594;-83
2023/11/23 05:38:35;;;;;;;32.57;29.07;;;;;;;;;;4979986;28;20245;-87
2023/11/23 05:41:01;;;;;;;35.53;31.43;;;;;;;;;;4956991;28;20225;-82
2023/11/23 05:43:31;;;;;;;35.77;31.17;;;;;;;;;;4949214;28;21148;-83
2023/11/23 05:45:56;;;;;;;38.93;32.67;;;;;;;;;;4964185;28;20302;-84
2023/11/23 05:48:22;;;;;;;37.23;31.87;;;;;;;;;;4960689;28;20226;-82
2023/11/23 05:50:48;;;;;;;37.53;33.60;;;;;;;;;;4951668;28;20972;-83
2023/11/23 05:53:13;;;;;;;34.77;31.23;;;;;;;;;;4950961;28;20305;-86
2023/11/23 05:55:39;;;;;;;41.70;34.80;;;;;;;;;;4954070;28;20218;-85
2023/11/23 05:58:07;;;;;;;39.83;34.90;;;;;;;;;;4953390;28;20226;-81
2023/11/23 06:00:37;;;;;;;41.70;33.73;;;;;;;;;;4950841;28;20229;-83
2023/11/23 06:03:03;;;;;;;44.97;34.40;;;;;;;;;;4957046;28;21071;-82
2023/11/23 06:05:28;;;;;;;38.93;34.03;;;;;;;;;;4954479;28;20248;-83
2023/11/23 06:07:56;;;;;;;42.50;36.00;;;;;;;;;;4949524;28;20222;-84
2023/11/23 06:10:22;;;;;;;41.93;37.43;;;;;;;;;;4957974;28;20876;-84
2023/11/23 06:12:48;;;;;;;43.47;37.23;;;;;;;;;;4953394;28;20288;-83
2023/11/23 06:15:17;;;;;;;41.03;36.67;;;;;;;;;;4948742;28;20301;-83
2023/11/23 06:17:44;;;;;;;41.60;35.27;;;;;;;;;;4954483;28;20222;-85
2023/11/23 06:20:12;;;;;;;42.57;37.53;;;;;;;;;;4953826;28;20731;-83
2023/11/23 06:22:38;;;;;;;42.83;37.57;;;;;;;;;;4958660;28;20242;-85
2023/11/23 06:25:04;;;;;;;44.80;37.50;;;;;;;;;;4927870;28;20226;-85
2023/11/23 06:27:32;;;;;;;43.87;37.97;;;;;;;;;;4943532;28;20222;-84
2023/11/23 06:29:57;;;;;;;49.40;39.40;;;;;;;;;;4957119;28;20225;-85
2023/11/23 06:32:23;;;;;;;43.00;38.27;;;;;;;;;;4941609;28;21284;-83
2023/11/23 06:34:51;;;;;;;42.77;37.90;;;;;;;;;;4957245;28;20279;-85
2023/11/23 06:37:22;;;;;;;43.07;38.37;;;;;;;;;;4943287;28;20217;-83
2023/11/23 06:39:52;;;;;;;44.20;36.63;;;;;;;;;;4960128;28;20227;-84
2023/11/23 06:42:19;;;;;;;41.83;35.00;;;;;;;;;;4947247;28;20219;-85
2023/11/23 06:44:45;;;;;;;39.63;35.23;;;;;;;;;;4957871;28;20302;-85
2023/11/23 06:47:15;;;;;;;37.43;33.70;;;;;;;;;;4959667;28;20223;-85
2023/11/23 06:49:45;;;;;;;38.47;34.43;;;;;;;;;;4954246;28;20230;-84
2023/11/23 06:52:11;;;;;;;38.10;34.20;;;;;;;;;;4946566;28;20314;-84
2023/11/23 06:54:36;;;;;;;38.00;34.07;;;;;;;;;;4953613;28;20265;-86
2023/11/23 06:57:07;;;;;;;37.70;33.77;;;;;;;;;;4965233;28;20225;-82
2023/11/23 06:59:36;;;;;;;37.63;31.57;;;;;;;;;;4958463;28;20691;-84
2023/11/23 07:02:03;;;;;;;38.53;34.43;;;;;;;;;;4955755;28;20321;-84
2023/11/23 07:04:33;;;;;;;46.07;41.13;;;;;;;;;;4931573;28;20253;-78
2023/11/23 07:06:58;;;;;;;36.37;32.67;;;;;;;;;;4965831;28;20613;-79
2023/11/23 07:09:24;;;;;;;41.13;33.73;;;;;;;;;;4967535;28;20234;-78
2023/11/23 07:11:53;;;;;;;37.80;33.50;;;;;;;;;;4947986;28;20223;-80
2023/11/23 07:14:22;;;;;;;37.83;33.73;;;;;;;;;;4964493;28;20226;-79
2023/11/23 07:16:55;;;;;;;36.67;32.57;;;;;;;;;;4963185;28;20699;-80
2023/11/23 07:19:20;;;;;;;38.63;33.70;;;;;;;;;;4952033;28;20230;-80
2023/11/23 07:21:49;;;;;;;37.17;32.73;;;;;;;;;;4953044;28;20329;-79
2023/11/23 07:24:17;;;;;;;35.60;31.93;;;;;;;;;;4952165;28;20230;-79
2023/11/23 07:26:43;;;;;;;39.23;32.63;;;;;;;;;;4949853;28;20783;-79
2023/11/23 07:29:08;;;;;;;35.57;31.77;;;;;;;;;;4950726;28;20229;-79
2023/11/23 07:31:35;;;;;;;36.13;32.30;;;;;;;;;;4966902;28;20269;-79
2023/11/23 07:34:03;;;;;;;35.63;31.73;;;;;;;;;;4961572;28;20223;-79
2023/11/23 07:36:30;;;;;;;33.80;30.27;;;;;;;;;;4945428;28;20242;-79
2023/11/23 07:38:56;;;;;;;35.53;31.43;;;;;;;;;;4962365;28;20257;-78
2023/11/23 07:41:21;;;;;;;33.70;30.00;;;;;;;;;;4961295;28;20237;-79
2023/11/23 07:43:47;;;;;;;32.17;28.83;;;;;;;;;;4966758;28;20225;-79
2023/11/23 07:46:12;;;;;;;30.83;27.80;;;;;;;;;;4943977;28;20313;-79
2023/11/23 07:48:38;;;;;;;31.37;28.07;;;;;;;;;;4944247;28;20230;-82
2023/11/23 07:51:08;;;;;;;29.03;26.20;;;;;;;;;;4935318;28;20227;-79
2023/11/23 07:53:33;;;;;;;29.63;26.60;;;;;;;;;;4960117;28;20277;-80
2023/11/23 07:56:01;;;;;;;30.30;27.23;;;;;;;;;;4960256;28;20549;-79
2023/11/23 07:58:27;;;;;;;31.17;27.97;;;;;;;;;;4946055;28;20233;-79
2023/11/23 08:00:52;;;;;;;30.40;27.30;;;;;;;;;;4967275;28;20280;-80
2023/11/23 08:03:18;;;;;;;30.00;26.80;;;;;;;;;;4968077;28;20238;-79
2023/11/23 08:05:45;;;;;;;28.83;26.03;;;;;;;;;;4950680;28;20222;-79
2023/11/23 08:08:11;;;;;;;30.80;25.80;;;;;;;;;;4954927;28;20219;-79
2023/11/23 08:10:37;;;;;;;26.87;24.27;;;;;;;;;;4953281;28;20222;-78
2023/11/23 08:13:04;;;;;;;29.00;26.20;;;;;;;;;;4965641;28;20234;-79
2023/11/23 08:15:29;;;;;;;28.93;25.07;;;;;;;;;;4966442;28;20225;-79
2023/11/23 08:17:55;;;;;;;26.70;23.90;;;;;;;;;;4951669;28;20214;-79
2023/11/23 08:20:23;;;;;;;26.27;23.53;;;;;;;;;;4968437;28;20598;-77
2023/11/23 08:22:49;;;;;;;24.70;22.30;;;;;;;;;;4966168;28;20246;-78
2023/11/23 08:25:15;;;;;;;27.47;22.10;;;;;;;;;;4947739;28;20230;-77
2023/11/23 08:27:40;;;;;;;24.47;21.87;;;;;;;;;;4951323;28;20222;-79
2023/11/23 08:30:08;;;;;;;30.90;22.13;;;;;;;;;;4964426;28;20226;-79
2023/11/23 08:32:34;;;;;;;25.27;22.50;;;;;;;;;;4944470;28;20222;-79
2023/11/23 08:35:03;;;;;;;22.70;20.17;;;;;;;;;;4949755;28;20291;-80
2023/11/23 08:37:29;;;;;;;22.47;20.37;;;;;;;;;;4930896;28;20238;-78
2023/11/23 08:39:56;;;;;;;20.53;18.43;;;;;;;;;;4949961;28;20237;-79
2023/11/23 08:42:22;;;;;;;23.43;21.13;;;;;;;;;;4957817;28;20222;-77
2023/11/23 08:44:48;;;;;;;19.30;17.33;;;;;;;;;;4947725;28;20235;-79
2023/11/23 08:47:14;;;;;;;25.50;18.40;;;;;;;;;;4948118;28;20222;-78
2023/11/23 08:49:41;;;;;;;17.93;16.03;;;;;;;;;;4959238;28;20981;-79
2023/11/23 08:52:09;;;;;;;25.97;22.60;;;;;;;;;;4956522;28;20924;-79
2023/11/23 08:54:35;;;;;;;19.47;16.37;;;;;;;;;;4942342;28;20222;-79
2023/11/23 08:57:03;;;;;;;17.27;14.63;;;;;;;;;;4963009;28;20222;-78
2023/11/23 08:59:31;;;;;;;17.77;13.37;;;;;;;;;;4957000;28;20236;-78
2023/11/23 09:01:57;;;;;;;15.83;14.23;;;;;;;;;;4939663;28;20309;-77
2023/11/23 09:04:24;;;;;;;15.97;14.23;;;;;;;;;;4941733;28;20234;-78
2023/11/23 09:06:50;;;;;;;15.77;11.83;;;;;;;;;;4944766;28;20262;-79
2023/11/23 09:09:17;;;;;;;14.93;12.60;;;;;;;;;;4943176;28;20239;-79
2023/11/23 09:11:43;;;;;;;16.33;12.80;;;;;;;;;;4944723;28;20771;-79
2023/11/23 09:14:09;;;;;;;14.13;11.30;;;;;;;;;;4947286;28;20230;-79
2023/11/23 09:16:34;;;;;;;15.33;12.20;;;;;;;;;;4965562;28;20226;-78
2023/11/23 09:19:03;;;;;;;14.20;11.80;;;;;;;;;;4948859;28;20219;-78
2023/11/23 09:21:34;;;;;;;11.90;10.60;;;;;;;;;;4931879;28;20222;-78
2023/11/23 09:24:05;;;;;;;11.40;9.03;;;;;;;;;;4948451;28;20258;-77
2023/11/23 09:26:33;;;;;;;11.67;9.47;;;;;;;;;;4944331;28;20309;-78
2023/11/23 09:28:58;;;;;;;15.07;8.97;;;;;;;;;;4948157;28;20234;-81
2023/11/23 09:31:31;;;;;;;11.33;8.87;;;;;;;;;;4945501;28;20641;-78
2023/11/23 09:33:56;;;;;;;12.10;8.43;;;;;;;;;;4959493;28;20306;-77
2023/11/23 09:36:22;;;;;;;9.87;7.70;;;;;;;;;;4944108;28;20226;-77
2023/11/23 09:38:49;;;;;;;8.27;7.43;;;;;;;;;;4945327;28;20245;-78
2023/11/23 09:41:18;;;;;;;13.20;8.17;;;;;;;;;;4942633;28;20645;-77
2023/11/23 09:43:49;;;;;;;10.17;7.23;;;;;;;;;;4943611;28;20230;-77
2023/11/23 09:46:19;;;;;;;10.20;6.73;;;;;;;;;;4947458;28;20246;-80
2023/11/23 09:48:45;;;;;;;8.83;6.67;;;;;;;;;;4960921;28;20214;-78
2023/11/23 09:51:10;;;;;;;8.43;6.77;;;;;;;;;;4964965;28;20594;-78
2023/11/23 09:53:36;;;;;;;7.40;5.50;;;;;;;;;;4951534;28;20230;-79
2023/11/23 09:56:03;;;;;;;10.27;6.17;;;;;;;;;;4947182;28;20218;-77
2023/11/23 09:58:29;;;;;;;9.43;6.47;;;;;;;;;;4954402;28;20285;-78
2023/11/23 10:00:55;;;;;;;10.63;5.70;;;;;;;;;;4954233;28;20210;-78
2023/11/23 10:03:23;;;;;;;6.50;5.00;;;;;;;;;;4937364;28;20732;-79
2023/11/23 10:05:54;;;;;;;7.67;4.40;;;;;;;;;;4952859;28;20245;-79
2023/11/23 10:08:19;;;;;;;9.20;5.30;;;;;;;;;;4969138;28;20261;-79
2023/11/23 10:10:45;;;;;;;9.63;4.50;;;;;;;;;;4968405;28;20715;-80
2023/11/23 10:13:11;;;;;;;8.57;3.90;;;;;;;;;;4951777;28;20226;-78
2023/11/23 10:15:36;;;;;;;6.80;4.13;;;;;;;;;;4938197;28;20233;-80
2023/11/23 10:18:02;;;;;;;8.33;4.30;;;;;;;;;;4950148;28;20430;-79
2023/11/23 10:20:28;;;;;;;5.57;3.37;;;;;;;;;;4963565;28;20229;-78
2023/11/23 10:22:54;;;;;;;5.87;3.87;;;;;;;;;;4949396;28;20349;-78
2023/11/23 10:25:31;;;;;;;6.20;3.43;;;;;;;;;;4973865;28;20245;-78
2023/11/23 10:27:58;;;;;;;7.87;3.53;;;;;;;;;;4976824;28;20214;-78
2023/11/23 10:30:27;;;;;;;8.67;3.30;;;;;;;;;;4952276;28;20223;-79
2023/11/23 10:32:54;;;;;;;6.43;3.10;;;;;;;;;;4952481;28;20222;-78
2023/11/23 10:35:19;;;;;;;10.23;2.77;;;;;;;;;;4952071;28;20258;-75
2023/11/23 10:37:45;;;;;;;5.30;2.70;;;;;;;;;;4953214;28;20314;-79
2023/11/23 10:40:13;;;;;;;5.27;2.77;;;;;;;;;;4951628;28;20214;-79
2023/11/23 10:42:40;;;;;;;7.50;3.97;;;;;;;;;;4953934;28;20292;-79
2023/11/23 10:45:06;;;;;;;8.73;2.93;;;;;;;;;;4953961;28;20230;-80
2023/11/23 10:47:32;;;;;;;7.50;2.67;;;;;;;;;;4954636;28;20710;-81
2023/11/23 10:50:00;;;;;;;9.80;3.47;;;;;;;;;;4971150;28;20297;-80
2023/11/23 10:52:28;;;;;;;4.93;3.00;;;;;;;;;;4949765;28;20218;-79
2023/11/23 10:54:54;;;;;;;5.83;3.27;;;;;;;;;;4948017;28;20249;-79
2023/11/23 10:57:20;;;;;;;8.53;4.40;;;;;;;;;;4952223;28;20316;-78
2023/11/23 10:59:47;;;;;;;10.57;4.93;;;;;;;;;;4947885;28;20306;-78
2023/11/23 11:02:13;;;;;;;17.10;7.93;;;;;;;;;;4945918;28;20214;-80
2023/11/23 11:04:43;;;;;;;10.07;5.70;;;;;;;;;;4952691;28;20226;-80
2023/11/23 11:07:11;;;;;;;6.50;3.73;;;;;;;;;;4948275;28;20230;-80
2023/11/23 11:09:39;;;;;;;6.53;2.80;;;;;;;;;;4964307;28;20223;-79
2023/11/23 11:12:05;;;;;;;10.83;6.93;;;;;;;;;;4964401;28;20235;-80
2023/11/23 11:14:34;;;;;;;4.63;2.90;;;;;;;;;;4940362;28;20230;-79
2023/11/23 11:17:04;;;;;;;5.60;2.80;;;;;;;;;;4956839;28;20222;-79
2023/11/23 11:19:50;;;;;;;3.97;2.37;;;;;;;;;;4945395;28;20366;-79
2023/11/23 11:22:16;;;;;;;11.00;2.63;;;;;;;;;;4959971;28;20253;-78
2023/11/23 11:24:42;;;;;;;7.27;2.47;;;;;;;;;;4948587;28;20258;-77
2023/11/23 11:27:09;;;;;;;4.37;2.43;;;;;;;;;;4966785;28;20225;-79
2023/11/23 11:29:35;;;;;;;4.87;2.33;;;;;;;;;;4945534;28;20317;-80
2023/11/23 11:32:07;;;;;;;8.83;2.30;;;;;;;;;;4949961;28;20222;-78
2023/11/23 11:34:34;;;;;;;6.57;2.07;;;;;;;;;;4955218;28;20666;-78
2023/11/23 11:37:04;;;;;;;8.07;2.50;;;;;;;;;;4954015;28;20743;-78
2023/11/23 11:39:30;;;;;;;5.23;2.20;;;;;;;;;;4962542;28;20222;-79
2023/11/23 11:41:59;;;;;;;5.13;2.13;;;;;;;;;;4968870;28;20233;-80
2023/11/23 11:44:33;;;;;;;10.43;2.33;;;;;;;;;;4967196;28;20243;-79
2023/11/23 11:47:08;;;;;;;4.43;2.23;;;;;;;;;;4952437;28;20238;-78
2023/11/23 11:49:34;;;;;;;3.17;1.70;;;;;;;;;;4966785;28;20242;-78
2023/11/23 11:52:02;;;;;;;5.23;2.27;;;;;;;;;;4951863;28;20215;-78
2023/11/23 11:54:28;;;;;;;4.03;2.53;;;;;;;;;;4962267;28;20656;-78
2023/11/23 11:56:54;;;;;;;6.53;3.37;;;;;;;;;;4970467;28;20229;-79
2023/11/23 11:59:22;;;;;;;4.63;3.50;;;;;;;;;;4980054;28;20226;-77
2023/11/23 12:01:48;;;;;;;3.50;1.90;;;;;;;;;;4958549;28;20233;-78
2023/11/23 12:04:17;;;;;;;7.23;3.17;;;;;;;;;;4955213;28;20656;-78
2023/11/23 12:06:48;;;;;;;4.60;1.90;;;;;;;;;;4957402;28;20241;-78
2023/11/23 12:09:19;;;;;;;5.27;3.13;;;;;;;;;;4949735;28;20230;-79
2023/11/23 12:11:46;;;;;;;8.67;2.20;;;;;;;;;;4968820;28;20225;-81
2023/11/23 12:14:12;;;;;;;4.03;1.57;;;;;;;;;;4951486;28;20318;-80
2023/11/23 12:16:40;;;;;;;5.60;1.90;;;;;;;;;;4955256;28;20670;-77
2023/11/23 12:19:16;;;;;;;4.10;2.03;;;;;;;;;;4951132;28;20210;-81
2023/11/23 12:21:42;;;;;;;4.03;1.93;;;;;;;;;;4951749;28;20612;-80
2023/11/23 12:24:08;;;;;;;9.57;2.17;;;;;;;;;;4940072;28;20241;-80
2023/11/23 12:26:33;;;;;;;7.03;2.30;;;;;;;;;;4961178;28;21077;-78
2023/11/23 12:28:59;;;;;;;6.10;2.07;;;;;;;;;;4979661;28;20698;-78
2023/11/23 12:31:24;;;;;;;9.57;4.17;;;;;;;;;;4965017;28;20616;-80
2023/11/23 12:33:49;;;;;;;5.10;3.20;;;;;;;;;;4972266;28;20725;-78
2023/11/23 12:36:18;;;;;;;11.00;4.33;;;;;;;;;;4963576;28;20599;-79
2023/11/23 12:38:46;;;;;;;8.43;5.20;;;;;;;;;;4963851;28;20253;-77
2023/11/23 12:41:14;;;;;;;12.17;6.50;;;;;;;;;;4958941;28;20226;-78
2023/11/23 12:43:42;;;;;;;7.53;3.63;;;;;;;;;;4959281;28;20225;-79
2023/11/23 12:46:07;;;;;;;7.47;3.20;;;;;;;;;;4960868;28;20231;-82
2023/11/23 12:48:33;;;;;;;10.57;6.30;;;;;;;;;;4954744;28;20226;-78
2023/11/23 12:50:59;;;;;;;8.27;3.77;;;;;;;;;;4951559;28;20227;-79
2023/11/23 12:53:27;;;;;;;8.33;3.40;;;;;;;;;;4964640;28;20230;-80
2023/11/23 12:55:55;;;;;;;6.50;2.67;;;;;;;;;;4955876;28;20229;-81
2023/11/23 12:58:22;;;;;;;6.17;3.10;;;;;;;;;;4936687;28;20227;-80
2023/11/23 13:00:47;;;;;;;4.43;2.33;;;;;;;;;;4952931;28;20734;-78
2023/11/23 13:03:14;;;;;;;6.07;2.40;;;;;;;;;;4961587;28;20240;-81
2023/11/23 13:05:39;;;;;;;3.73;1.60;;;;;;;;;;4952505;28;20433;-78
2023/11/23 13:08:07;;;;;;;7.57;1.90;;;;;;;;;;4967725;28;20221;-79
2023/11/23 13:10:33;;;;;;;3.07;1.83;;;;;;;;;;4958421;28;20297;-79
2023/11/23 13:13:00;;;;;;;3.93;1.93;;;;;;;;;;4944577;28;20225;-78
2023/11/23 13:15:31;;;;;;;7.77;2.60;;;;;;;;;;4944083;28;20229;-77
2023/11/23 13:17:59;;;;;;;3.83;2.20;;;;;;;;;;4945582;28;20255;-78
2023/11/23 13:20:24;;;;;;;6.50;2.40;;;;;;;;;;4951137;28;20222;-77
2023/11/23 13:22:50;;;;;;;4.53;2.47;;;;;;;;;;4947362;28;20241;-77
2023/11/23 13:25:18;;;;;;;5.87;3.20;;;;;;;;;;4948160;28;20233;-80
2023/11/23 13:27:44;;;;;;;4.80;2.60;;;;;;;;;;4953655;28;20222;-84
2023/11/23 13:30:14;;;;;;;5.40;2.47;;;;;;;;;;4947357;28;20294;-84
2023/11/23 13:32:41;;;;;;;7.77;2.77;;;;;;;;;;4956559;28;20230;-83
2023/11/23 13:35:10;;;;;;;6.13;2.27;;;;;;;;;;4953898;28;20307;-84
2023/11/23 13:37:40;;;;;;;6.20;2.73;;;;;;;;;;4953034;28;20250;-85
2023/11/23 13:40:07;;;;;;;6.03;3.77;;;;;;;;;;4953396;28;20241;-85
2023/11/23 13:42:33;;;;;;;3.83;2.80;;;;;;;;;;4964743;28;21321;-82
2023/11/23 13:44:59;;;;;;;5.00;3.37;;;;;;;;;;4952649;28;20218;-84
2023/11/23 13:47:28;;;;;;;4.60;2.63;;;;;;;;;;4949439;28;20244;-85
2023/11/23 13:49:56;;;;;;;8.07;4.77;;;;;;;;;;4953236;28;20222;-86
2023/11/23 13:52:25;;;;;;;8.03;2.73;;;;;;;;;;4950396;28;20219;-84
2023/11/23 13:54:51;;;;;;;8.27;4.00;;;;;;;;;;4951899;28;20791;-81
2023/11/23 13:57:17;;;;;;;6.23;4.00;;;;;;;;;;4937127;28;20245;-83
2023/11/23 13:59:48;;;;;;;3.90;3.47;;;;;;;;;;4950482;28;20289;-84
2023/11/23 14:02:16;;;;;;;5.50;4.47;;;;;;;;;;4951240;28;20237;-86
2023/11/23 14:04:45;;;;;;;4.50;2.27;;;;;;;;;;4943424;28;20535;-84
2023/11/23 14:07:11;;;;;;;5.80;3.23;;;;;;;;;;4944416;28;20242;-85
2023/11/23 14:09:37;;;;;;;4.10;2.53;;;;;;;;;;4954810;28;20222;-83
2023/11/23 14:12:04;;;;;;;3.40;2.60;;;;;;;;;;4940396;28;20242;-85
2023/11/23 14:14:32;;;;;;;6.03;2.40;;;;;;;;;;4948455;28;20233;-84
2023/11/23 14:16:59;;;;;;;5.40;2.73;;;;;;;;;;4950972;28;20227;-86
2023/11/23 14:19:25;;;;;;;3.20;2.27;;;;;;;;;;4948084;28;20273;-84
2023/11/23 14:21:55;;;;;;;3.47;2.70;;;;;;;;;;4950665;28;20234;-86
2023/11/23 14:24:23;;;;;;;5.00;2.97;;;;;;;;;;4929032;28;20584;-84
2023/11/23 14:26:49;;;;;;;4.50;2.77;;;;;;;;;;4950151;28;20230;-84
2023/11/23 14:29:16;;;;;;;3.67;2.37;;;;;;;;;;4954346;28;20242;-83